Time;durP1;ratioP1;P1;durP2;ratioP2;P2;SDS_P1;SDS_P2;PMS_P1;PMS_P2;Temp;Humidity;BMP_temperature;BMP_pressure;BME280_temperature;BME280_humidity;BME280_pressure;Samples;Min_cycle;Max_cycle;Signal;HPM_P1;HPM_P2
2024/02/12 00:00:18;;;;;;;14.67;11.17;;;;;;;9.03;100.00;98283.00;5087676;28;20253;-61
2024/02/12 00:02:47;;;;;;;14.23;10.53;;;;;;;9.03;100.00;98290.72;5085339;28;20575;-60
2024/02/12 00:05:17;;;;;;;13.73;10.97;;;;;;;9.04;100.00;98283.84;5087338;28;20291;-54
2024/02/12 00:07:45;;;;;;;15.53;10.57;;;;;;;9.06;100.00;98285.47;5085192;28;20216;-58
2024/02/12 00:10:14;;;;;;;14.53;11.33;;;;;;;9.07;100.00;98287.16;5087631;28;21045;-63
2024/02/12 00:12:43;;;;;;;14.23;10.27;;;;;;;9.08;100.00;98285.41;5079550;28;20245;-60
2024/02/12 00:15:12;;;;;;;14.67;10.87;;;;;;;9.10;100.00;98284.47;5087171;28;20212;-59
2024/02/12 00:17:41;;;;;;;14.43;11.50;;;;;;;9.10;100.00;98291.34;5084754;28;20224;-61
2024/02/12 00:20:12;;;;;;;16.20;10.83;;;;;;;9.10;100.00;98292.19;5084969;28;20699;-59
2024/02/12 00:22:42;;;;;;;13.50;10.40;;;;;;;9.10;100.00;98283.66;5085886;28;20228;-61
2024/02/12 00:25:12;;;;;;;14.33;10.80;;;;;;;9.09;100.00;98292.22;5081774;28;20201;-61
2024/02/12 00:27:41;;;;;;;16.03;11.47;;;;;;;9.05;100.00;98282.94;5081935;28;20196;-61
2024/02/12 00:30:10;;;;;;;12.73;9.90;;;;;;;9.07;100.00;98289.72;5090313;28;20205;-61
2024/02/12 00:32:38;;;;;;;14.70;11.20;;;;;;;9.10;100.00;98293.91;5074992;28;20205;-61
2024/02/12 00:35:08;;;;;;;14.70;11.00;;;;;;;9.10;100.00;98289.63;5077662;28;20204;-61
2024/02/12 00:37:36;;;;;;;14.73;10.80;;;;;;;9.07;100.00;98284.56;5087687;28;20208;-61
2024/02/12 00:40:09;;;;;;;15.03;11.17;;;;;;;9.09;100.00;98287.09;5093481;28;20208;-60
2024/02/12 00:42:38;;;;;;;15.50;11.07;;;;;;;9.10;100.00;98286.22;5093191;28;20672;-65
2024/02/12 00:45:08;;;;;;;15.80;11.27;;;;;;;9.09;100.00;98295.63;5089305;28;20197;-61
2024/02/12 00:47:36;;;;;;;14.43;10.77;;;;;;;9.09;100.00;98287.91;5087434;28;20565;-60
2024/02/12 00:50:07;;;;;;;14.40;10.40;;;;;;;9.10;100.00;98286.22;5087023;28;20201;-60
2024/02/12 00:52:37;;;;;;;13.47;10.17;;;;;;;9.10;100.00;98287.06;5085254;28;20672;-60
2024/02/12 00:55:08;;;;;;;15.23;10.60;;;;;;;9.12;100.00;98279.28;5081110;28;20208;-61
2024/02/12 00:57:36;;;;;;;14.37;10.23;;;;;;;9.12;100.00;98286.97;5085482;28;20204;-60
2024/02/12 01:00:06;;;;;;;14.20;10.20;;;;;;;9.11;100.00;98278.44;5092304;28;20269;-64
2024/02/12 01:02:35;;;;;;;14.13;9.97;;;;;;;9.11;100.00;98287.88;5087682;28;20211;-59
2024/02/12 01:05:03;;;;;;;17.73;10.40;;;;;;;9.14;100.00;98290.34;5094331;28;20215;-60
2024/02/12 01:07:31;;;;;;;11.80;9.60;;;;;;;9.12;100.00;98290.38;5089482;28;20216;-63
2024/02/12 01:10:01;;;;;;;13.33;10.33;;;;;;;9.10;100.00;98281.06;5089132;28;20246;-60
2024/02/12 01:12:31;;;;;;;12.77;10.30;;;;;;;9.12;100.00;98285.25;5089599;28;20327;-61
2024/02/12 01:15:00;;;;;;;13.43;10.03;;;;;;;9.14;100.00;98283.47;5089296;28;20672;-63
2024/02/12 01:17:29;;;;;;;12.77;9.73;;;;;;;9.17;100.00;98283.38;5086311;28;20205;-59
2024/02/12 01:19:57;;;;;;;13.53;9.47;;;;;;;9.16;100.00;98281.69;5092681;28;20219;-60
2024/02/12 01:22:25;;;;;;;13.37;9.70;;;;;;;9.13;100.00;98279.25;5088939;28;20207;-61
2024/02/12 01:24:54;;;;;;;12.53;9.43;;;;;;;9.14;100.00;98280.06;5087922;28;20251;-61
2024/02/12 01:27:23;;;;;;;13.27;9.73;;;;;;;9.16;100.00;98281.69;5087274;28;20201;-60
2024/02/12 01:29:53;;;;;;;14.20;9.90;;;;;;;9.18;100.00;98281.66;5091595;28;20299;-59
2024/02/12 01:32:22;;;;;;;14.07;10.43;;;;;;;9.16;100.00;98286.81;5081348;28;20209;-61
2024/02/12 01:34:50;;;;;;;13.77;10.10;;;;;;;9.16;100.00;98288.56;5087789;28;20205;-61
2024/02/12 01:37:18;;;;;;;15.03;10.33;;;;;;;9.10;100.00;98287.06;5092881;28;20587;-59
2024/02/12 01:39:49;;;;;;;15.03;10.10;;;;;;;9.10;100.00;98286.22;5092256;28;20228;-61
2024/02/12 01:42:17;;;;;;;15.53;11.07;;;;;;;9.10;100.00;98291.34;5086877;28;20200;-60
2024/02/12 01:44:58;;;;;;;12.23;10.07;;;;;;;9.11;100.00;98288.72;5090371;28;21189;-59
2024/02/12 01:47:28;;;;;;;13.83;10.40;;;;;;;9.12;100.00;98289.56;5093070;28;20204;-61
2024/02/12 01:49:57;;;;;;;14.67;10.53;;;;;;;9.11;100.00;98288.72;5092521;28;20720;-59
2024/02/12 01:52:27;;;;;;;13.73;10.40;;;;;;;9.10;100.00;98283.66;5088065;28;20236;-60
2024/02/12 01:55:00;;;;;;;14.47;10.70;;;;;;;9.10;100.00;98289.63;5095381;28;20675;-60
2024/02/12 01:57:29;;;;;;;14.43;10.13;;;;;;;9.09;100.00;98284.50;5093244;28;20295;-59
2024/02/12 02:00:04;;;;;;;15.40;11.07;;;;;;;9.05;100.00;98283.78;5087320;28;20698;-61
2024/02/12 02:02:35;;;;;;;12.77;9.50;;;;;;;9.04;100.00;98288.97;5081079;28;20201;-60
2024/02/12 02:05:04;;;;;;;14.10;11.00;;;;;;;9.04;100.00;98281.28;5090848;28;20197;-60
2024/02/12 02:07:33;;;;;;;13.77;10.63;;;;;;;9.00;100.00;98283.09;5084647;28;20207;-61
2024/02/12 02:10:01;;;;;;;15.53;10.93;;;;;;;9.02;100.00;98291.63;5082732;28;20197;-60
2024/02/12 02:12:29;;;;;;;13.43;10.40;;;;;;;9.02;100.00;98285.59;5090357;28;20232;-61
2024/02/12 02:14:57;;;;;;;13.20;10.97;;;;;;;9.03;100.00;98288.16;5093273;28;20219;-60
2024/02/12 02:17:25;;;;;;;13.23;10.70;;;;;;;9.03;100.00;98284.75;5090724;28;20217;-61
2024/02/12 02:19:58;;;;;;;15.27;11.43;;;;;;;9.01;100.00;98287.34;5082877;28;20213;-61
2024/02/12 02:22:26;;;;;;;13.10;10.27;;;;;;;9.05;100.00;98288.09;5086701;28;20598;-60
2024/02/12 02:24:56;;;;;;;14.27;11.50;;;;;;;9.03;100.00;98290.72;5087236;28;20527;-58
2024/02/12 02:27:25;;;;;;;14.73;11.23;;;;;;;9.03;100.00;98292.44;5090364;28;20204;-61
2024/02/12 02:29:53;;;;;;;14.30;11.40;;;;;;;9.03;100.00;98293.28;5086653;28;20238;-59
2024/02/12 02:32:21;;;;;;;12.07;10.67;;;;;;;9.02;100.00;98294.19;5089253;28;20258;-59
2024/02/12 02:34:49;;;;;;;12.60;11.03;;;;;;;9.03;100.00;98290.72;5091646;28;20342;-59
2024/02/12 02:37:18;;;;;;;17.00;12.07;;;;;;;9.03;100.00;98301.00;5092248;28;20287;-59
2024/02/12 02:39:46;;;;;;;14.57;10.87;;;;;;;9.02;100.00;98304.47;5081173;28;20209;-58
2024/02/12 02:42:16;;;;;;;17.20;11.67;;;;;;;9.01;100.00;98295.03;5088016;28;20204;-60
2024/02/12 02:44:44;;;;;;;15.47;11.57;;;;;;;9.02;100.00;98296.75;5083925;28;20197;-61
2024/02/12 02:47:12;;;;;;;14.13;11.23;;;;;;;9.03;100.00;98300.16;5087509;28;20200;-61
2024/02/12 02:49:41;;;;;;;13.63;11.23;;;;;;;9.03;100.00;98301.00;5095780;28;20204;-59
2024/02/12 02:52:11;;;;;;;14.27;12.00;;;;;;;9.04;100.00;98296.69;5086097;28;20866;-60
2024/02/12 02:54:39;;;;;;;14.47;11.73;;;;;;;9.05;100.00;98299.19;5087066;28;20222;-60
2024/02/12 02:57:08;;;;;;;16.37;11.73;;;;;;;9.05;100.00;98296.63;5087425;28;20198;-59
2024/02/12 02:59:38;;;;;;;14.30;11.50;;;;;;;9.03;100.00;98301.00;5086981;28;20202;-58
2024/02/12 03:02:08;;;;;;;16.73;12.27;;;;;;;9.05;100.00;98303.50;5086399;28;20630;-66
2024/02/12 03:04:38;;;;;;;15.77;11.60;;;;;;;9.05;100.00;98303.50;5081742;28;20296;-61
2024/02/12 03:07:06;;;;;;;14.47;11.97;;;;;;;9.04;100.00;98305.22;5089228;28;20542;-63
2024/02/12 03:09:35;;;;;;;15.80;11.37;;;;;;;9.05;100.00;98312.03;5091871;28;20270;-60
2024/02/12 03:12:03;;;;;;;15.13;11.87;;;;;;;9.05;100.00;98303.50;5094374;28;20232;-61
2024/02/12 03:14:31;;;;;;;15.00;11.93;;;;;;;9.05;100.00;98309.47;5095190;28;20197;-61
2024/02/12 03:17:01;;;;;;;14.03;10.83;;;;;;;9.04;100.00;98312.94;5088401;28;20661;-60
2024/02/12 03:19:29;;;;;;;16.10;12.40;;;;;;;9.04;100.00;98305.22;5091469;28;20200;-61
2024/02/12 03:21:57;;;;;;;14.97;11.60;;;;;;;9.03;100.00;98310.44;5081586;28;20256;-61
2024/02/12 03:24:28;;;;;;;14.57;11.60;;;;;;;9.03;100.00;98311.25;5081385;28;20240;-59
2024/02/12 03:26:57;;;;;;;15.67;12.97;;;;;;;9.05;100.00;98313.78;5091543;28;20972;-65
2024/02/12 03:29:27;;;;;;;16.47;12.00;;;;;;;9.05;100.00;98319.75;5087991;28;20208;-64
2024/02/12 03:31:55;;;;;;;14.70;11.67;;;;;;;9.05;100.00;98316.34;5083290;28;20209;-60
2024/02/12 03:34:29;;;;;;;17.90;12.90;;;;;;;9.03;100.00;98321.53;5090015;28;20209;-60
2024/02/12 03:36:57;;;;;;;16.03;12.17;;;;;;;9.03;100.00;98324.09;5094766;28;20200;-60
2024/02/12 03:39:26;;;;;;;18.80;12.57;;;;;;;9.04;100.00;98332.66;5091507;28;20727;-60
2024/02/12 03:41:54;;;;;;;16.37;13.13;;;;;;;9.02;100.00;98330.16;5089582;28;20216;-62
2024/02/12 03:44:22;;;;;;;15.67;11.83;;;;;;;9.03;100.00;98331.81;5077614;28;20698;-61
2024/02/12 03:46:52;;;;;;;13.47;12.10;;;;;;;9.05;100.00;98334.31;5089234;28;20197;-61
2024/02/12 04:00:26;;;;;;;15.60;12.40;;;;;;;9.00;100.00;98334.47;5083449;28;20737;-66
2024/02/12 04:02:55;;;;;;;16.53;13.03;;;;;;;9.02;100.00;98348.13;5085910;28;20552;-61
2024/02/12 04:05:23;;;;;;;15.87;12.83;;;;;;;9.04;100.00;98341.19;5090079;28;20209;-61
2024/02/12 04:07:53;;;;;;;16.40;13.07;;;;;;;9.02;100.00;98345.56;5091000;28;20704;-61
2024/02/12 04:10:23;;;;;;;18.37;13.43;;;;;;;9.03;100.00;98346.41;5079934;28;20647;-61
2024/02/12 04:12:55;;;;;;;18.20;13.97;;;;;;;9.02;100.00;98344.69;5082285;28;20246;-58
2024/02/12 04:15:23;;;;;;;16.93;13.10;;;;;;;9.04;100.00;98342.94;5086648;28;20201;-62
2024/02/12 04:17:51;;;;;;;16.33;13.00;;;;;;;9.02;100.00;98344.69;5089636;28;20224;-67
2024/02/12 04:20:22;;;;;;;17.93;13.67;;;;;;;9.02;100.00;98339.56;5080202;28;20204;-61
2024/02/12 04:22:52;;;;;;;18.43;13.17;;;;;;;9.02;100.00;98344.69;5081172;28;20196;-63
2024/02/12 04:25:23;;;;;;;16.00;11.67;;;;;;;9.02;100.00;98344.69;5087956;28;20211;-63
2024/02/12 04:27:54;;;;;;;17.47;13.40;;;;;;;9.02;100.00;98344.69;5080058;28;20228;-62
2024/02/12 04:30:25;;;;;;;17.53;13.27;;;;;;;9.00;100.00;98349.91;5090831;28;20975;-61
2024/02/12 04:32:55;;;;;;;15.70;12.80;;;;;;;9.02;100.00;98344.69;5084066;28;20255;-63
2024/02/12 04:35:25;;;;;;;16.10;13.20;;;;;;;9.01;100.00;98346.44;5081005;28;20209;-59
2024/02/12 04:37:54;;;;;;;13.43;11.63;;;;;;;9.01;100.00;98348.16;5073684;28;20208;-59
2024/02/12 04:40:25;;;;;;;14.43;12.47;;;;;;;9.01;100.00;98349.00;5083968;28;20571;-57
2024/02/12 04:42:54;;;;;;;17.53;11.80;;;;;;;8.99;100.00;98350.78;5089746;28;20223;-61
2024/02/12 04:45:22;;;;;;;17.83;13.50;;;;;;;8.99;100.00;98350.78;5090023;28;20204;-59
2024/02/12 04:47:54;;;;;;;15.70;12.70;;;;;;;9.01;100.00;98356.69;5084203;28;20205;-60
2024/02/12 04:50:23;;;;;;;14.47;12.83;;;;;;;9.02;100.00;98355.84;5085098;28;20228;-61
2024/02/12 04:52:51;;;;;;;16.17;12.73;;;;;;;9.03;100.00;98349.81;5090425;28;20204;-59
2024/02/12 04:55:19;;;;;;;16.40;13.13;;;;;;;9.03;100.00;98356.66;5085453;28;20610;-61
2024/02/12 04:57:48;;;;;;;15.77;12.23;;;;;;;9.02;100.00;98360.09;5082495;28;20436;-59
2024/02/12 05:00:17;;;;;;;14.17;11.30;;;;;;;9.01;100.00;98363.56;5086413;28;20213;-60
2024/02/12 05:02:46;;;;;;;14.43;11.33;;;;;;;9.01;100.00;98355.88;5084214;28;20703;-60
2024/02/12 05:05:14;;;;;;;15.77;12.30;;;;;;;9.01;100.00;98354.13;5089956;28;20258;-65
2024/02/12 05:07:42;;;;;;;13.47;11.37;;;;;;;9.02;100.00;98360.09;5079864;28;20237;-61
2024/02/12 05:10:10;;;;;;;15.47;12.00;;;;;;;9.01;100.00;98361.00;5086345;28;20200;-61
2024/02/12 05:12:38;;;;;;;13.93;11.23;;;;;;;9.00;100.00;98361.91;5083107;28;20239;-61
2024/02/12 05:15:10;;;;;;;14.67;10.57;;;;;;;9.01;100.00;98366.97;5088380;28;20236;-59
2024/02/12 05:17:52;;;;;;;13.53;10.50;;;;;;;9.00;100.00;98362.75;5082093;28;20244;-62
2024/02/12 05:23:16;;;;;;;12.37;9.97;;;;;;;8.97;100.00;98367.97;5065115;28;20609;-60
2024/02/12 05:25:45;;;;;;;13.87;10.00;;;;;;;8.94;100.00;98378.34;5091001;28;20201;-59
2024/02/12 05:28:13;;;;;;;12.53;9.93;;;;;;;8.93;100.00;98376.66;5089646;28;20211;-59
2024/02/12 05:30:43;;;;;;;12.67;10.17;;;;;;;8.94;100.00;98373.19;5094272;28;20201;-62
2024/02/12 05:33:11;;;;;;;11.33;9.43;;;;;;;8.92;100.00;98375.81;5084331;28;20204;-62
2024/02/12 05:35:40;;;;;;;10.27;9.10;;;;;;;8.92;100.00;98375.81;5083816;28;20283;-59
2024/02/12 05:38:09;;;;;;;10.87;9.13;;;;;;;8.92;100.00;98382.69;5093467;28;20277;-62
2024/02/12 05:40:38;;;;;;;14.70;10.37;;;;;;;8.89;100.00;98375.09;5093303;28;20204;-59
2024/02/12 05:43:06;;;;;;;13.00;10.00;;;;;;;8.88;100.00;98384.53;5092846;28;20224;-63
2024/02/12 05:45:34;;;;;;;13.67;10.17;;;;;;;8.89;99.95;98390.50;5087638;28;20197;-61
2024/02/12 05:48:05;;;;;;;12.40;9.03;;;;;;;8.88;100.00;98393.97;5084081;28;20228;-59
2024/02/12 05:50:33;;;;;;;12.17;9.60;;;;;;;8.87;100.00;98397.41;5088886;28;20210;-60
2024/02/12 05:53:02;;;;;;;11.90;9.03;;;;;;;8.85;100.00;98396.63;5093218;28;20629;-62
2024/02/12 05:55:31;;;;;;;10.87;8.67;;;;;;;8.84;100.00;98398.34;5086933;28;20205;-62
2024/02/12 05:57:59;;;;;;;12.13;8.73;;;;;;;8.84;100.00;98407.78;5087372;28;20229;-62
2024/02/12 06:00:26;;;;;;;12.27;8.97;;;;;;;8.81;100.00;98410.44;5085917;28;20315;-60
2024/02/12 06:02:54;;;;;;;11.13;7.73;;;;;;;8.79;100.00;98414.78;5084145;28;20208;-63
2024/02/12 06:05:24;;;;;;;9.17;8.17;;;;;;;8.78;100.00;98410.53;5083511;28;20246;-61
2024/02/12 06:07:52;;;;;;;7.97;7.17;;;;;;;8.77;99.76;98414.00;5092388;28;20203;-61
2024/02/12 06:10:21;;;;;;;9.47;7.50;;;;;;;8.75;99.32;98410.63;5082834;28;20205;-61
2024/02/12 06:12:49;;;;;;;10.33;7.83;;;;;;;8.75;99.78;98414.03;5089919;28;20229;-61
2024/02/12 06:15:17;;;;;;;8.93;7.67;;;;;;;8.77;99.94;98421.69;5087952;28;20209;-61
2024/02/12 06:17:45;;;;;;;9.03;7.50;;;;;;;8.77;100.00;98422.53;5081134;28;20205;-54
2024/02/12 06:20:13;;;;;;;9.77;7.47;;;;;;;8.78;98.12;98424.22;5087605;28;20653;-59
2024/02/12 06:22:42;;;;;;;8.60;7.40;;;;;;;8.79;99.99;98430.19;5085520;28;20656;-61
2024/02/12 06:25:13;;;;;;;7.53;6.40;;;;;;;8.80;96.67;98421.59;5079589;28;20216;-61
2024/02/12 06:27:41;;;;;;;6.93;6.17;;;;;;;8.76;98.10;98425.13;5079753;28;20557;-63
2024/02/12 06:30:12;;;;;;;8.33;7.00;;;;;;;8.72;96.31;98424.38;5082754;28;20656;-58
2024/02/12 06:32:41;;;;;;;7.23;5.23;;;;;;;8.67;97.40;98418.56;5078512;28;20208;-55
2024/02/12 06:35:09;;;;;;;6.50;5.23;;;;;;;8.67;97.79;98429.66;5079304;28;20205;-59
2024/02/12 06:37:38;;;;;;;6.27;5.67;;;;;;;8.69;95.92;98425.34;5077550;28;20200;-59
2024/02/12 06:40:10;;;;;;;6.00;5.30;;;;;;;8.69;95.83;98425.34;5081036;28;20196;-55
2024/02/12 06:42:42;;;;;;;6.00;5.40;;;;;;;8.69;95.51;98424.50;5075455;28;20235;-59
2024/02/12 06:45:11;;;;;;;5.83;5.33;;;;;;;8.71;95.81;98428.69;5076273;28;20205;-61
2024/02/12 06:47:40;;;;;;;5.97;5.00;;;;;;;8.73;94.98;98433.78;5092017;28;20664;-60
2024/02/12 06:50:08;;;;;;;6.83;5.10;;;;;;;8.75;94.63;98434.56;5085234;28;20747;-62
2024/02/12 06:52:38;;;;;;;5.43;4.93;;;;;;;8.76;95.46;98435.41;5089094;28;20196;-61
2024/02/12 06:55:10;;;;;;;6.83;5.00;;;;;;;8.77;94.27;98429.41;5091236;28;20224;-62
2024/02/12 06:57:38;;;;;;;5.23;4.73;;;;;;;8.78;94.16;98433.66;5085205;28;20237;-65
2024/02/12 07:00:07;;;;;;;5.37;4.70;;;;;;;8.82;95.75;98438.63;5085182;28;20219;-61
2024/02/12 07:02:36;;;;;;;8.27;4.87;;;;;;;8.82;94.46;98432.66;5090060;28;20223;-61
2024/02/12 07:05:05;;;;;;;5.57;4.50;;;;;;;8.82;94.71;98435.22;5088808;28;20246;-60
2024/02/12 07:07:33;;;;;;;4.93;4.53;;;;;;;8.81;93.83;98443.84;5091098;28;20208;-59
2024/02/12 07:10:01;;;;;;;6.83;4.90;;;;;;;8.83;94.30;98444.59;5089178;28;20258;-64
2024/02/12 07:12:30;;;;;;;5.17;4.50;;;;;;;8.85;94.76;98453.13;5087546;28;20239;-60
2024/02/12 07:14:58;;;;;;;4.97;4.50;;;;;;;8.86;92.88;98452.22;5089171;28;20205;-63
2024/02/12 07:17:26;;;;;;;5.17;4.63;;;;;;;8.89;94.47;98457.28;5081354;28;20204;-62
2024/02/12 07:19:55;;;;;;;4.40;4.00;;;;;;;8.89;92.31;98457.28;5090102;28;20209;-66
2024/02/12 07:22:23;;;;;;;4.40;4.00;;;;;;;8.91;93.26;98461.50;5081673;28;20209;-62
2024/02/12 07:24:51;;;;;;;4.83;4.10;;;;;;;8.89;92.13;98457.28;5092163;28;20719;-61
2024/02/12 07:27:19;;;;;;;4.77;4.00;;;;;;;8.92;93.15;98459.75;5089753;28;20205;-61
2024/02/12 07:29:49;;;;;;;4.83;3.87;;;;;;;8.94;93.66;98457.97;5086033;28;20711;-60
2024/02/12 07:32:17;;;;;;;4.40;4.00;;;;;;;8.98;93.60;98462.13;5089645;28;20204;-59
2024/02/12 07:34:45;;;;;;;4.63;4.23;;;;;;;8.98;92.29;98459.53;5097048;28;20206;-60
2024/02/12 07:37:13;;;;;;;4.57;3.80;;;;;;;8.99;91.69;98468.97;5080436;28;20295;-61
2024/02/12 07:39:41;;;;;;;3.93;3.63;;;;;;;9.00;92.74;98467.22;5083897;28;20208;-62
2024/02/12 07:42:09;;;;;;;4.60;3.87;;;;;;;8.98;92.10;98466.41;5073618;28;20300;-61
2024/02/12 07:44:38;;;;;;;3.83;3.43;;;;;;;8.97;92.03;98469.88;5087246;28;20208;-61
2024/02/12 07:47:07;;;;;;;5.67;4.20;;;;;;;8.97;93.11;98468.16;5086554;28;20201;-60
2024/02/12 07:49:35;;;;;;;4.03;3.63;;;;;;;8.95;91.20;98480.22;5089785;28;20247;-62
2024/02/12 07:52:04;;;;;;;4.00;3.60;;;;;;;8.93;91.53;98472.53;5084574;28;20656;-58
2024/02/12 07:54:34;;;;;;;5.23;3.87;;;;;;;8.92;92.25;98478.56;5081880;28;20228;-59
2024/02/12 07:57:04;;;;;;;3.83;3.43;;;;;;;8.92;92.42;98482.88;5087834;28;20254;-60
2024/02/12 07:59:32;;;;;;;4.00;3.60;;;;;;;8.92;93.70;98478.56;5077593;28;20938;-59
2024/02/12 08:02:02;;;;;;;5.70;3.30;;;;;;;8.93;92.04;98481.97;5084862;28;20464;-59
2024/02/12 08:04:31;;;;;;;3.80;3.50;;;;;;;8.93;91.91;98480.25;5087653;28;20270;-59
2024/02/12 08:06:59;;;;;;;3.83;3.43;;;;;;;8.96;92.52;98497.31;5086148;28;20246;-61
2024/02/12 08:09:28;;;;;;;3.30;3.00;;;;;;;8.92;91.99;98482.88;5087136;28;20298;-63
2024/02/12 08:11:57;;;;;;;4.97;3.13;;;;;;;8.90;91.87;98482.06;5090406;28;20231;-59
2024/02/12 08:14:26;;;;;;;4.03;3.47;;;;;;;8.89;93.09;98490.66;5089003;28;20564;-60
2024/02/12 08:16:54;;;;;;;5.13;3.40;;;;;;;8.87;91.56;98489.84;5089373;28;20300;-58
2024/02/12 08:19:22;;;;;;;3.77;3.40;;;;;;;8.87;93.85;98492.41;5084794;28;20208;-61
2024/02/12 08:21:52;;;;;;;4.23;3.47;;;;;;;8.87;92.83;98490.72;5085377;28;20201;-57
2024/02/12 08:24:20;;;;;;;4.83;3.53;;;;;;;8.86;93.32;98508.72;5091785;28;20232;-62
2024/02/12 08:26:49;;;;;;;3.43;3.13;;;;;;;8.86;92.87;98499.28;5087602;28;20211;-58
2024/02/12 08:29:17;;;;;;;3.93;3.23;;;;;;;8.89;93.94;98501.78;5085877;28;20261;-61
2024/02/12 08:31:45;;;;;;;4.00;3.60;;;;;;;8.92;93.80;98509.41;5088781;28;20250;-58
2024/02/12 08:34:14;;;;;;;4.33;3.53;;;;;;;8.94;93.47;98509.34;5089074;28;20848;-60
2024/02/12 08:36:43;;;;;;;4.13;3.50;;;;;;;8.93;92.95;98510.22;5084260;28;20616;-58
2024/02/12 08:39:13;;;;;;;5.63;3.40;;;;;;;8.93;93.80;98520.50;5086046;28;20571;-64
2024/02/12 08:41:47;;;;;;;4.17;3.77;;;;;;;8.92;93.51;98518.84;5090593;28;20648;-62
2024/02/12 08:44:16;;;;;;;4.47;3.50;;;;;;;8.94;93.07;98524.75;5090135;28;20244;-61
2024/02/12 08:46:44;;;;;;;4.03;3.30;;;;;;;8.91;94.58;98533.41;5090726;28;20672;-59
2024/02/12 08:49:12;;;;;;;3.90;3.03;;;;;;;8.88;94.11;98537.78;5088316;28;20236;-63
2024/02/12 08:51:41;;;;;;;3.60;2.77;;;;;;;8.87;94.64;98536.09;5090722;28;20567;-59
2024/02/12 08:54:09;;;;;;;3.50;3.20;;;;;;;8.84;92.93;98537.03;5088268;28;20200;-58
2024/02/12 08:56:41;;;;;;;8.07;3.13;;;;;;;8.80;93.81;98537.16;5082225;28;20238;-58
2024/02/12 08:59:10;;;;;;;3.50;3.20;;;;;;;8.77;95.43;98540.66;5085507;28;21577;-58
2024/02/12 09:01:38;;;;;;;4.27;3.53;;;;;;;8.77;93.94;98544.97;5088915;28;20580;-61
2024/02/12 09:04:07;;;;;;;5.00;3.17;;;;;;;8.73;93.17;98548.47;5094235;28;20695;-60
2024/02/12 09:06:35;;;;;;;3.80;3.17;;;;;;;8.69;94.89;98550.31;5092422;28;20205;-60
2024/02/12 09:09:04;;;;;;;3.93;2.90;;;;;;;8.70;95.99;98557.97;5092456;28;20207;-60
2024/02/12 09:11:32;;;;;;;3.40;3.10;;;;;;;8.71;95.82;98557.06;5093144;28;20243;-59
2024/02/12 09:14:01;;;;;;;4.23;3.33;;;;;;;8.76;94.57;98563.81;5080698;28;20380;-60
2024/02/12 09:16:29;;;;;;;3.23;2.90;;;;;;;8.76;93.78;98558.66;5090283;28;20209;-59
2024/02/12 09:18:57;;;;;;;3.70;3.30;;;;;;;8.77;96.35;98561.22;5092119;28;20250;-62
2024/02/12 09:21:25;;;;;;;3.00;2.70;;;;;;;8.81;94.12;98561.97;5089592;28;20312;-64
2024/02/12 09:23:53;;;;;;;5.13;3.30;;;;;;;8.81;95.42;98561.97;5091703;28;20211;-65
2024/02/12 09:26:21;;;;;;;3.97;3.57;;;;;;;8.82;94.99;98569.63;5091986;28;20204;-63
2024/02/12 09:28:49;;;;;;;3.40;3.10;;;;;;;8.81;95.64;98570.50;5089433;28;20212;-64
2024/02/12 09:31:19;;;;;;;4.27;3.33;;;;;;;8.82;94.00;98574.75;5091597;28;20204;-64
2024/02/12 09:33:47;;;;;;;3.70;2.83;;;;;;;8.85;95.46;98578.97;5093438;28;20189;-64
2024/02/12 09:36:16;;;;;;;3.43;2.90;;;;;;;8.85;95.69;98579.81;5092901;28;20579;-62
2024/02/12 09:38:45;;;;;;;5.57;3.53;;;;;;;8.88;95.55;98574.59;5091094;28;20593;-63
2024/02/12 09:41:16;;;;;;;5.27;3.10;;;;;;;8.88;93.82;98584.88;5089972;28;20664;-66
2024/02/12 09:43:44;;;;;;;3.33;3.03;;;;;;;8.89;93.87;98583.13;5091568;28;20236;-65
2024/02/12 09:46:15;;;;;;;3.47;2.80;;;;;;;8.89;92.73;98588.25;5090233;28;20625;-62
2024/02/12 09:48:44;;;;;;;3.40;3.10;;;;;;;8.92;94.57;98589.03;5089382;28;20205;-62
2024/02/12 09:51:15;;;;;;;4.53;3.10;;;;;;;8.90;94.12;98587.38;5091380;28;20215;-63
2024/02/12 09:53:44;;;;;;;4.37;3.17;;;;;;;8.94;92.77;98594.94;5090938;28;20327;-62
2024/02/12 09:56:12;;;;;;;3.40;3.10;;;;;;;8.94;93.17;98594.09;5089071;28;20304;-66
2024/02/12 09:58:41;;;;;;;3.70;3.37;;;;;;;8.93;92.92;98600.97;5089803;28;20204;-63
2024/02/12 10:01:10;;;;;;;4.20;3.20;;;;;;;8.95;92.15;98600.94;5090735;28;20197;-61
2024/02/12 10:03:39;;;;;;;3.83;3.00;;;;;;;8.97;92.60;98598.31;5088931;28;20228;-62
2024/02/12 10:06:08;;;;;;;3.53;3.23;;;;;;;9.00;91.77;98600.81;5090035;28;20201;-64
2024/02/12 10:08:37;;;;;;;3.00;2.70;;;;;;;9.03;92.59;98608.44;5087745;28;20258;-61
2024/02/12 10:11:06;;;;;;;3.43;3.13;;;;;;;9.02;92.99;98607.59;5090065;28;20728;-63
2024/02/12 10:13:34;;;;;;;4.53;3.00;;;;;;;9.02;91.27;98607.59;5090785;28;20671;-63
2024/02/12 10:16:04;;;;;;;3.67;2.83;;;;;;;9.02;92.79;98599.91;5091677;28;20217;-63
2024/02/12 10:18:32;;;;;;;3.23;2.93;;;;;;;9.03;91.74;98601.56;5090801;28;20201;-61
2024/02/12 10:21:01;;;;;;;5.30;2.93;;;;;;;9.04;92.41;98592.97;5088480;28;20634;-61
2024/02/12 10:23:30;;;;;;;4.87;3.10;;;;;;;9.10;92.63;98604.81;5088018;28;20688;-61
2024/02/12 10:25:58;;;;;;;3.17;2.87;;;;;;;9.09;90.33;98600.53;5089953;28;20262;-65
2024/02/12 10:28:27;;;;;;;3.53;3.20;;;;;;;9.07;93.16;98600.59;5088707;28;20201;-65
2024/02/12 10:30:56;;;;;;;3.13;2.87;;;;;;;9.10;93.38;98594.53;5088388;28;20559;-67
2024/02/12 10:33:24;;;;;;;3.37;3.00;;;;;;;9.13;92.63;98605.56;5096690;28;20204;-63
2024/02/12 10:35:53;;;;;;;4.13;3.43;;;;;;;9.15;92.21;98611.47;5091628;28;20301;-64
2024/02/12 10:38:22;;;;;;;4.00;3.23;;;;;;;9.12;91.68;98598.72;5091549;28;20204;-59
2024/02/12 10:41:09;;;;;;;3.30;3.00;;;;;;;9.09;92.17;98603.94;5082775;28;20203;-60
2024/02/12 10:43:40;;;;;;;4.70;3.23;;;;;;;9.08;91.27;98607.41;5094480;28;20635;-61
2024/02/12 10:46:09;;;;;;;3.10;2.80;;;;;;;9.10;92.26;98605.66;5093812;28;20240;-65
2024/02/12 10:48:38;;;;;;;4.30;3.57;;;;;;;9.10;93.17;98612.50;5098975;28;20250;-60
2024/02/12 10:51:08;;;;;;;4.60;3.70;;;;;;;9.10;92.34;98610.78;5097224;28;20288;-64
2024/02/12 10:53:39;;;;;;;4.00;3.60;;;;;;;9.13;91.85;98620.97;5087554;28;20205;-62
2024/02/12 10:56:09;;;;;;;4.10;3.20;;;;;;;9.11;90.94;98609.06;5090314;28;20203;-62
2024/02/12 10:58:38;;;;;;;4.23;3.57;;;;;;;9.10;92.64;98621.06;5089614;28;20636;-64
2024/02/12 11:01:11;;;;;;;4.73;3.57;;;;;;;9.12;91.35;98623.56;5092521;28;20200;-64
2024/02/12 11:03:41;;;;;;;3.33;3.03;;;;;;;9.15;91.68;98624.34;5088127;28;20266;-67
2024/02/12 11:06:11;;;;;;;3.63;3.33;;;;;;;9.11;90.92;98627.88;5089547;28;20312;-56
2024/02/12 11:08:40;;;;;;;4.00;3.23;;;;;;;9.11;90.80;98627.88;5090691;28;20205;-60
2024/02/12 11:11:22;;;;;;;4.27;3.47;;;;;;;9.17;91.63;98638.00;5092428;28;20224;-58
2024/02/12 11:13:58;;;;;;;3.90;3.40;;;;;;;9.17;90.06;98635.44;5085642;28;20232;-58
2024/02/12 11:16:30;;;;;;;4.17;3.10;;;;;;;9.19;90.45;98630.22;5087078;28;20369;-60
2024/02/12 11:18:59;;;;;;;3.73;3.43;;;;;;;9.16;90.13;98626.00;5090706;28;20279;-59
2024/02/12 11:21:32;;;;;;;6.20;3.30;;;;;;;9.14;89.44;98625.22;5089234;28;20192;-59
2024/02/12 11:24:07;;;;;;;4.17;3.60;;;;;;;9.14;90.84;98632.94;5087089;28;20632;-62
2024/02/12 11:26:41;;;;;;;3.93;3.37;;;;;;;9.13;90.36;98631.25;5089747;28;20196;-59
2024/02/12 11:29:10;;;;;;;3.33;3.03;;;;;;;9.06;89.55;98629.75;5089873;28;20273;-59
2024/02/12 11:31:40;;;;;;;4.07;3.57;;;;;;;9.06;90.36;98627.19;5089205;28;20226;-63
2024/02/12 11:34:13;;;;;;;4.10;3.53;;;;;;;9.08;89.40;98638.25;5088442;28;20203;-59
2024/02/12 11:36:42;;;;;;;4.47;3.13;;;;;;;9.05;90.97;98629.78;5086650;28;20224;-59
2024/02/12 11:39:10;;;;;;;5.13;3.67;;;;;;;9.06;89.79;98646.91;5088108;28;20239;-59
2024/02/12 11:41:40;;;;;;;5.27;3.23;;;;;;;9.03;90.72;98644.41;5088386;28;20226;-59
2024/02/12 11:44:08;;;;;;;4.80;3.90;;;;;;;9.02;91.99;98640.13;5088433;28;20279;-61
2024/02/12 11:46:40;;;;;;;4.43;3.73;;;;;;;8.99;89.79;98638.50;5088811;28;20306;-64
2024/02/12 11:49:08;;;;;;;3.83;3.03;;;;;;;9.02;90.39;98642.69;5085007;28;20253;-58
2024/02/12 11:51:38;;;;;;;4.40;4.00;;;;;;;9.02;89.86;98646.13;5085653;28;20205;-58